Kitanomaru — JD2835 — position and weather

sailwx.info

Track history (hours):
 
Tides and Currents Weather Stations Pressure Air Temp Water Temp Dewpoint Dewpoint Depression Visibility Wind Speed Wind Dir Waves Ship Positions

Kitanomaru

Last reported at 2014-Oct-29 01:12 UTC. Time now 2014-Nov-01 14:07 UTC.
Position N 35°29' E 139°53'.

Length 39 m; draft 4 m.

Type: Tug. MMSI: 431000773.

Date/timePositionNaut miles runAvg speedWind from/ knotsBaromVisibWave heightAir tempDewpointWater temp
2014-Oct-29 01:12N 35°29' E 139°53'6 0.1
2014-Oct-26 21:33N 35°33' E 139°58'4 0.2
2014-Oct-26 02:11N 35°29' E 140°00'1 0.7
2014-Oct-26 00:28N 35°30' E 139°59'2 0.1
2014-Oct-25 05:26N 35°31' E 139°56'0 0.0
2014-Oct-25 04:19N 35°31' E 139°56'1 1.0
2014-Oct-25 03:33N 35°30' E 139°56'1 1.4
2014-Oct-25 02:31N 35°31' E 139°57'2 0.0
2014-Oct-23 00:33N 35°31' E 139°60'3 0.1
2014-Oct-21 23:11N 35°29' E 139°59'1 1.6
2014-Oct-21 22:24N 35°28' E 139°58'4 0.3
2014-Oct-21 05:16N 35°32' E 139°57'1 0.1
2014-Oct-20 04:31N 35°31' E 139°55'1 0.7
2014-Oct-20 03:33N 35°31' E 139°56'2 1.0
2014-Oct-20 01:31N 35°29' E 139°57'  
Track history (hours):
 
Tides and Currents Weather Stations Pressure Air Temp Water Temp Dewpoint Dewpoint Depression Visibility Wind Speed Wind Dir Waves Ship Positions

Kitanomaru

Last reported at 2014-Oct-29 01:12 UTC. Time now 2014-Nov-01 14:07 UTC.
Position N 35°29' E 139°53'.

Length 39 m; draft 4 m.

Type: Tug. MMSI: 431000773.

Date/timePositionNaut miles runAvg speedWind from/ knotsBaromVisibWave heightAir tempDewpointWater temp
2014-Oct-29 01:12N 35°29' E 139°53'6 0.1
2014-Oct-26 21:33N 35°33' E 139°58'4 0.2
2014-Oct-26 02:11N 35°29' E 140°00'1 0.7
2014-Oct-26 00:28N 35°30' E 139°59'2 0.1
2014-Oct-25 05:26N 35°31' E 139°56'0 0.0
2014-Oct-25 04:19N 35°31' E 139°56'1 1.0
2014-Oct-25 03:33N 35°30' E 139°56'1 1.4
2014-Oct-25 02:31N 35°31' E 139°57'2 0.0
2014-Oct-23 00:33N 35°31' E 139°60'3 0.1
2014-Oct-21 23:11N 35°29' E 139°59'1 1.6
2014-Oct-21 22:24N 35°28' E 139°58'4 0.3
2014-Oct-21 05:16N 35°32' E 139°57'1 0.1
2014-Oct-20 04:31N 35°31' E 139°55'1 0.7
2014-Oct-20 03:33N 35°31' E 139°56'2 1.0
2014-Oct-20 01:31N 35°29' E 139°57'  

Dump ship's entire track history